createdAt,value
2019-02-20T00:00:49.412Z,13.27
2019-02-20T00:01:49.450Z,13.19
2019-02-20T00:02:49.506Z,13.2
2019-02-20T00:03:49.228Z,13.15
2019-02-20T00:04:49.235Z,13.3
2019-02-20T00:05:49.510Z,13.2
2019-02-20T00:06:49.537Z,13.15
2019-02-20T00:07:49.554Z,13.13
2019-02-20T00:08:49.573Z,13.11
2019-02-20T00:09:49.604Z,13.04
2019-02-20T00:10:49.361Z,13.13
2019-02-20T00:11:49.377Z,13.08
2019-02-20T00:12:49.398Z,13.09
2019-02-20T00:13:49.679Z,13.12
2019-02-20T00:14:49.957Z,13.08
2019-02-20T00:15:49.465Z,13.04
2019-02-20T00:16:49.999Z,13.03
2019-02-20T00:17:49.759Z,12.98
2019-02-20T00:18:49.831Z,13
2019-02-20T00:19:49.801Z,12.91
2019-02-20T00:20:49.567Z,12.91
2019-02-20T00:21:49.586Z,12.97
2019-02-20T00:22:49.611Z,12.86
2019-02-20T00:23:49.890Z,12.86
2019-02-20T00:24:49.653Z,12.83
2019-02-20T00:25:49.925Z,12.91
2019-02-20T00:26:49.784Z,12.83
2019-02-20T00:27:49.983Z,12.91
2019-02-20T00:28:49.777Z,12.87
2019-02-20T00:29:50.008Z,12.86
2019-02-20T00:30:49.782Z,12.79
2019-02-20T00:31:50.059Z,12.79
2019-02-20T00:32:50.011Z,12.8
2019-02-20T00:33:50.096Z,12.8
2019-02-20T00:34:50.135Z,12.68
2019-02-20T00:35:49.888Z,12.82
2019-02-20T00:36:50.185Z,12.83
2019-02-20T00:37:49.920Z,12.68
2019-02-20T00:38:50.196Z,12.75
2019-02-20T00:39:50.477Z,12.7
2019-02-20T00:40:50.513Z,12.73
2019-02-20T00:41:50.254Z,12.7
2019-02-20T00:42:50.014Z,12.73
2019-02-20T00:43:50.298Z,12.68
2019-02-20T00:44:50.321Z,12.62
2019-02-20T00:45:50.334Z,12.73
2019-02-20T00:46:50.645Z,12.62
2019-02-20T00:47:50.116Z,12.61
2019-02-20T00:48:50.657Z,12.6
2019-02-20T00:49:50.691Z,12.58
2019-02-20T00:50:50.437Z,12.6
2019-02-20T00:51:50.460Z,12.58
2019-02-20T00:52:54.649Z,12.58
2019-02-20T00:53:50.546Z,12.58
2019-02-20T00:54:50.776Z,12.58
2019-02-20T00:55:50.542Z,12.62
2019-02-20T00:56:50.902Z,12.55
2019-02-20T00:57:50.330Z,12.54
2019-02-20T00:58:50.599Z,12.53
2019-02-20T00:59:50.633Z,12.55
2019-02-20T01:00:50.382Z,12.53
2019-02-20T01:01:50.668Z,12.42
2019-02-20T01:02:50.431Z,12.57
2019-02-20T01:03:50.961Z,12.57
2019-02-20T01:04:51.037Z,12.54
2019-02-20T01:05:51.012Z,12.5
2019-02-20T01:06:50.782Z,12.47
2019-02-20T01:07:50.782Z,12.49
2019-02-20T01:08:50.808Z,12.4
2019-02-20T01:09:50.825Z,12.42
2019-02-20T01:10:51.105Z,12.43
2019-02-20T01:11:50.871Z,12.37
2019-02-20T01:12:50.895Z,12.39
2019-02-20T01:13:51.174Z,12.46
2019-02-20T01:14:50.924Z,12.39
2019-02-20T01:15:50.717Z,12.37
2019-02-20T01:16:50.706Z,12.4
2019-02-20T01:17:51.052Z,12.36
2019-02-20T01:18:51.010Z,12.42
2019-02-20T01:19:51.287Z,12.31
2019-02-20T01:20:51.070Z,12.37
2019-02-20T01:21:50.816Z,12.32
2019-02-20T01:22:59.589Z,12.36
2019-02-20T01:23:50.913Z,12.28
2019-02-20T01:24:51.127Z,12.28
2019-02-20T01:25:51.155Z,12.24
2019-02-20T01:26:51.172Z,12.35
2019-02-20T01:27:51.191Z,12.27
2019-02-20T01:28:51.467Z,12.24
2019-02-20T01:29:51.232Z,12.2
2019-02-20T01:30:50.995Z,12.22
2019-02-20T01:31:51.281Z,12.29
2019-02-20T01:32:51.037Z,12.22
2019-02-20T01:33:51.313Z,12.25
2019-02-20T01:34:51.351Z,12.28
2019-02-20T01:35:51.357Z,12.21
2019-02-20T01:36:51.116Z,12.31
2019-02-20T01:37:51.135Z,12.15
2019-02-20T01:38:51.684Z,12.27
2019-02-20T01:39:52.082Z,12.18
2019-02-20T01:40:51.717Z,12.18
2019-02-20T01:41:51.480Z,12.1
2019-02-20T01:42:51.756Z,12.07
2019-02-20T01:43:51.265Z,12.2
2019-02-20T01:44:51.534Z,12.12
2019-02-20T01:45:51.814Z,12.07
2019-02-20T01:46:51.842Z,12.2
2019-02-20T01:47:51.604Z,12.04
2019-02-20T01:48:51.878Z,12.13
2019-02-20T01:49:51.893Z,12.12
2019-02-20T01:50:51.654Z,12.07
2019-02-20T01:51:51.676Z,12.09
2019-02-20T01:52:51.955Z,11.97
2019-02-20T01:53:51.715Z,12.04
2019-02-20T01:54:51.735Z,11.97
2019-02-20T01:55:52.011Z,11.91
2019-02-20T01:56:51.523Z,12.03
2019-02-20T01:57:51.797Z,11.88
2019-02-20T01:58:51.820Z,12.07
2019-02-20T01:59:51.581Z,11.99
2019-02-20T02:00:51.857Z,11.9
2019-02-20T02:01:51.881Z,11.88
2019-02-20T02:02:52.163Z,11.9
2019-02-20T02:03:51.927Z,11.88
2019-02-20T02:04:51.699Z,11.94
2019-02-20T02:05:51.968Z,11.94
2019-02-20T02:06:51.982Z,11.86
2019-02-20T02:07:51.738Z,11.81
2019-02-20T02:08:52.283Z,11.94
2019-02-20T02:09:52.295Z,11.83
2019-02-20T02:10:52.054Z,11.84
2019-02-20T02:11:51.823Z,11.86
2019-02-20T02:12:52.105Z,11.78
2019-02-20T02:13:52.389Z,11.8
2019-02-20T02:14:51.880Z,11.88
2019-02-20T02:15:52.155Z,11.78
2019-02-20T02:16:52.174Z,11.78
2019-02-20T02:17:51.954Z,11.78
2019-02-20T02:18:52.229Z,11.81
2019-02-20T02:19:52.239Z,11.77
2019-02-20T02:20:52.550Z,11.78
2019-02-20T02:21:52.332Z,11.77
2019-02-20T02:22:52.295Z,11.77
2019-02-20T02:23:52.617Z,11.77
2019-02-20T02:24:52.333Z,11.7
2019-02-20T02:25:52.365Z,11.73
2019-02-20T02:26:52.631Z,11.73
2019-02-20T02:27:52.392Z,11.62
2019-02-20T02:28:52.156Z,11.65
2019-02-20T02:29:52.438Z,11.63
2019-02-20T02:30:52.714Z,11.6
2019-02-20T02:31:52.486Z,11.63
2019-02-20T02:32:52.493Z,11.59
2019-02-20T02:33:52.526Z,11.57
2019-02-20T02:34:52.286Z,11.54
2019-02-20T02:35:52.600Z,11.55
2019-02-20T02:36:52.588Z,11.54
2019-02-20T02:37:52.858Z,11.55
2019-02-20T02:38:52.628Z,11.55
2019-02-20T02:39:52.902Z,11.57
2019-02-20T02:40:52.911Z,11.59
2019-02-20T02:41:52.417Z,11.54
2019-02-20T02:42:52.437Z,11.51
2019-02-20T02:43:52.980Z,11.5
2019-02-20T02:44:52.986Z,11.57
2019-02-20T02:45:52.754Z,11.51
2019-02-20T02:46:53.032Z,11.47
2019-02-20T02:47:52.822Z,11.54
2019-02-20T02:48:52.819Z,11.59
2019-02-20T02:49:52.568Z,11.54
2019-02-20T02:50:52.607Z,11.44
2019-02-20T02:51:52.611Z,11.41
2019-02-20T02:52:52.889Z,11.43
2019-02-20T02:53:52.910Z,11.45
2019-02-20T02:54:52.685Z,11.54
2019-02-20T02:55:52.977Z,11.45
2019-02-20T02:56:52.965Z,11.45
2019-02-20T02:57:52.986Z,11.52
2019-02-20T02:58:53.017Z,11.43
2019-02-20T02:59:52.774Z,11.4
2019-02-20T03:00:54.273Z,11.36
2019-02-20T03:01:53.061Z,11.43
2019-02-20T03:02:53.477Z,11.43
2019-02-20T03:03:53.112Z,11.44
2019-02-20T03:04:52.867Z,11.33
2019-02-20T03:05:53.152Z,11.35
2019-02-20T03:06:53.165Z,11.37
2019-02-20T03:07:53.190Z,11.35
2019-02-20T03:08:52.940Z,11.43
2019-02-20T03:09:53.245Z,11.41
2019-02-20T03:10:52.980Z,11.32
2019-02-20T03:11:53.268Z,11.4
2019-02-20T03:12:53.281Z,11.37
2019-02-20T03:13:53.308Z,11.29
2019-02-20T03:14:53.358Z,11.35
2019-02-20T03:15:53.605Z,11.35
2019-02-20T03:16:53.099Z,11.29
2019-02-20T03:17:53.118Z,11.3
2019-02-20T03:18:53.665Z,11.3
2019-02-20T03:19:53.162Z,11.35
2019-02-20T03:20:53.436Z,11.32
2019-02-20T03:21:53.451Z,11.35
2019-02-20T03:22:53.476Z,11.33
2019-02-20T03:23:53.501Z,11.3
2019-02-20T03:24:53.257Z,11.23
2019-02-20T03:25:53.793Z,11.3
2019-02-20T03:26:53.294Z,11.29
2019-02-20T03:27:53.581Z,11.3
2019-02-20T03:28:53.591Z,11.29
2019-02-20T03:29:53.611Z,11.26
2019-02-20T03:30:53.377Z,11.25
2019-02-20T03:31:53.672Z,11.19
2019-02-20T03:32:53.959Z,11.23
2019-02-20T03:33:53.703Z,11.26
2019-02-20T03:34:53.450Z,11.18
2019-02-20T03:35:53.468Z,11.23
2019-02-20T03:36:53.754Z,11.23
2019-02-20T03:37:54.022Z,11.17
2019-02-20T03:38:53.635Z,11.25
2019-02-20T03:39:53.587Z,11.22
2019-02-20T03:40:53.565Z,11.23
2019-02-20T03:41:54.128Z,11.15
2019-02-20T03:42:53.894Z,11.17
2019-02-20T03:43:54.139Z,11.14
2019-02-20T03:44:53.918Z,11.11
2019-02-20T03:45:53.666Z,11.14
2019-02-20T03:46:53.691Z,11.17
2019-02-20T03:47:53.709Z,11.07
2019-02-20T03:48:53.994Z,11.11
2019-02-20T03:49:54.013Z,11.12
2019-02-20T03:50:54.027Z,11.1
2019-02-20T03:51:54.036Z,11.11
2019-02-20T03:52:54.106Z,11.11
2019-02-20T03:53:56.441Z,11.1
2019-02-20T03:54:54.376Z,11
2019-02-20T03:55:54.111Z,11.12
2019-02-20T03:56:54.149Z,11.07
2019-02-20T03:57:54.417Z,11.11
2019-02-20T03:58:54.326Z,11
2019-02-20T03:59:53.935Z,11.08
2019-02-20T04:00:53.949Z,11
2019-02-20T04:01:54.239Z,11
2019-02-20T04:02:54.249Z,11.02
2019-02-20T04:03:54.280Z,10.94
2019-02-20T04:04:54.291Z,10.96
2019-02-20T04:05:54.307Z,10.99
2019-02-20T04:06:54.342Z,11.04
2019-02-20T04:07:54.349Z,10.99
2019-02-20T04:08:54.628Z,11.04
2019-02-20T04:09:54.639Z,10.94
2019-02-20T04:10:54.413Z,10.97
2019-02-20T04:11:54.173Z,11.07
2019-02-20T04:12:54.454Z,11
2019-02-20T04:13:54.204Z,10.94
2019-02-20T04:14:54.492Z,10.93
2019-02-20T04:15:54.501Z,10.93
2019-02-20T04:16:54.518Z,11.02
2019-02-20T04:17:54.287Z,11.05
2019-02-20T04:18:54.817Z,10.94
2019-02-20T04:19:54.330Z,10.96
2019-02-20T04:20:54.612Z,10.9
2019-02-20T04:21:54.618Z,10.97
2019-02-20T04:22:54.910Z,10.94
2019-02-20T04:24:04.080Z,10.93
2019-02-20T04:24:54.424Z,10.92
2019-02-20T04:25:54.512Z,10.92
2019-02-20T04:26:54.461Z,10.94
2019-02-20T04:27:54.733Z,10.89
2019-02-20T04:28:54.496Z,10.92
2019-02-20T04:29:54.509Z,10.89
2019-02-20T04:30:54.539Z,10.9
2019-02-20T04:31:54.806Z,10.79
2019-02-20T04:32:54.851Z,10.86
2019-02-20T04:33:55.113Z,10.81
2019-02-20T04:34:54.865Z,10.81
2019-02-20T04:35:55.148Z,10.9
2019-02-20T04:36:54.909Z,10.86
2019-02-20T04:37:54.929Z,10.82
2019-02-20T04:38:54.685Z,10.87
2019-02-20T04:39:54.788Z,10.81
2019-02-20T04:40:54.725Z,10.82
2019-02-20T04:41:54.779Z,10.79
2019-02-20T04:42:54.764Z,10.92
2019-02-20T04:43:55.057Z,10.79
2019-02-20T04:44:55.094Z,10.82
2019-02-20T04:45:54.827Z,10.81
2019-02-20T04:46:55.104Z,10.82
2019-02-20T04:47:55.119Z,10.84
2019-02-20T04:48:55.134Z,10.81
2019-02-20T04:49:54.896Z,10.79
2019-02-20T04:50:55.198Z,10.76
2019-02-20T04:51:54.935Z,10.74
2019-02-20T04:52:54.953Z,10.81
2019-02-20T04:53:55.230Z,10.81
2019-02-20T04:54:55.245Z,10.79
2019-02-20T04:55:55.559Z,10.74
2019-02-20T04:56:55.027Z,10.79
2019-02-20T04:57:55.311Z,10.71
2019-02-20T04:58:55.329Z,10.81
2019-02-20T04:59:55.607Z,10.74
2019-02-20T05:00:55.408Z,10.68
2019-02-20T05:01:55.385Z,10.76
2019-02-20T05:02:55.665Z,10.79
2019-02-20T05:03:55.422Z,10.78
2019-02-20T05:04:55.482Z,10.81
2019-02-20T05:05:55.716Z,10.68
2019-02-20T05:06:55.526Z,10.76
2019-02-20T05:07:55.260Z,10.72
2019-02-20T05:08:55.518Z,10.74
2019-02-20T05:09:55.553Z,10.71
2019-02-20T05:10:55.818Z,10.69
2019-02-20T05:11:55.607Z,10.64
2019-02-20T05:12:55.599Z,10.63
2019-02-20T05:13:55.623Z,10.69
2019-02-20T05:14:55.686Z,10.68
2019-02-20T05:15:55.664Z,10.61
2019-02-20T05:16:55.429Z,10.68
2019-02-20T05:17:55.696Z,10.68
2019-02-20T05:18:55.466Z,10.75
2019-02-20T05:19:55.984Z,10.68
2019-02-20T05:20:55.747Z,10.68
2019-02-20T05:21:55.763Z,10.69
2019-02-20T05:22:55.784Z,10.67
2019-02-20T05:23:55.802Z,10.64
2019-02-20T05:24:55.567Z,10.59
2019-02-20T05:25:55.597Z,10.71
2019-02-20T05:26:56.116Z,10.61
2019-02-20T05:27:55.877Z,10.69
2019-02-20T05:28:55.895Z,10.59
2019-02-20T05:29:55.660Z,10.63
2019-02-20T05:30:55.940Z,10.67
2019-02-20T05:31:55.958Z,10.6
2019-02-20T05:32:55.971Z,10.67
2019-02-20T05:33:55.993Z,10.68
2019-02-20T05:34:56.012Z,10.69
2019-02-20T05:35:56.032Z,10.6
2019-02-20T05:36:56.311Z,10.56
2019-02-20T05:37:55.814Z,10.68
2019-02-20T05:38:55.828Z,10.57
2019-02-20T05:39:56.377Z,10.64
2019-02-20T05:40:56.385Z,10.61
2019-02-20T05:41:56.145Z,10.57
2019-02-20T05:42:55.908Z,10.51
2019-02-20T05:43:56.188Z,10.56
2019-02-20T05:44:56.515Z,10.61
2019-02-20T05:45:56.252Z,10.59
2019-02-20T05:46:55.985Z,10.57
2019-02-20T05:47:56.269Z,10.48
2019-02-20T05:48:56.537Z,10.56
2019-02-20T05:49:56.550Z,10.57
2019-02-20T05:50:56.323Z,10.46
2019-02-20T05:51:56.335Z,10.56
2019-02-20T05:52:56.104Z,10.51
2019-02-20T05:53:56.119Z,10.54
2019-02-20T05:54:56.131Z,10.48
2019-02-20T05:55:56.686Z,10.51
2019-02-20T05:56:56.178Z,10.51
2019-02-20T05:57:56.188Z,10.42
2019-02-20T05:58:56.210Z,10.49
2019-02-20T05:59:56.765Z,10.49
2019-02-20T06:00:56.506Z,10.53
2019-02-20T06:01:56.530Z,10.53
2019-02-20T06:02:56.808Z,10.56
2019-02-20T06:03:56.571Z,10.38
2019-02-20T06:04:56.343Z,10.53
2019-02-20T06:05:56.608Z,10.46
2019-02-20T06:06:56.636Z,10.51
2019-02-20T06:07:56.422Z,10.42
2019-02-20T06:08:56.660Z,10.4
2019-02-20T06:09:56.676Z,10.46
2019-02-20T06:10:56.445Z,10.48
2019-02-20T06:11:56.765Z,10.48
2019-02-20T06:12:56.475Z,10.46
2019-02-20T06:13:56.505Z,10.44
2019-02-20T06:14:56.512Z,10.44
2019-02-20T06:15:56.528Z,10.4
2019-02-20T06:16:56.549Z,10.44
2019-02-20T06:17:56.583Z,10.42
2019-02-20T06:18:56.596Z,10.44
2019-02-20T06:19:56.869Z,10.4
2019-02-20T06:20:56.888Z,10.37
2019-02-20T06:21:56.912Z,10.42
2019-02-20T06:22:56.662Z,10.42
2019-02-20T06:23:56.685Z,10.41
2019-02-20T06:24:57.243Z,10.41
2019-02-20T06:25:56.998Z,10.4
2019-02-20T06:26:57.008Z,10.38
2019-02-20T06:27:57.021Z,10.48
2019-02-20T06:28:56.778Z,10.38
2019-02-20T06:29:57.307Z,10.35
2019-02-20T06:30:57.070Z,10.31
2019-02-20T06:31:56.833Z,10.3
2019-02-20T06:32:57.384Z,10.37
2019-02-20T06:33:56.864Z,10.33
2019-02-20T06:34:57.146Z,10.35
2019-02-20T06:35:57.163Z,10.37
2019-02-20T06:36:56.924Z,10.3
2019-02-20T06:37:56.949Z,10.33
2019-02-20T06:38:57.229Z,10.34
2019-02-20T06:39:57.498Z,10.28
2019-02-20T06:40:57.278Z,10.34
2019-02-20T06:41:57.024Z,10.31
2019-02-20T06:42:57.293Z,10.28
2019-02-20T06:43:57.315Z,10.26
2019-02-20T06:44:57.330Z,10.31
2019-02-20T06:45:57.353Z,10.28
2019-02-20T06:46:57.370Z,10.3
2019-02-20T06:47:57.388Z,10.33
2019-02-20T06:48:57.150Z,10.3
2019-02-20T06:49:57.718Z,10.34
2019-02-20T06:50:57.186Z,10.26
2019-02-20T06:51:57.465Z,10.28
2019-02-20T06:52:57.230Z,10.28
2019-02-20T06:53:57.502Z,10.3
2019-02-20T06:54:58.844Z,10.33
2019-02-20T06:55:57.551Z,10.28
2019-02-20T06:56:57.300Z,10.25
2019-02-20T06:57:57.318Z,10.19
2019-02-20T06:58:57.596Z,10.23
2019-02-20T06:59:57.357Z,10.25
2019-02-20T07:00:57.644Z,10.25
2019-02-20T07:01:57.404Z,10.26
2019-02-20T07:02:57.679Z,10.33
2019-02-20T07:03:57.953Z,10.31
2019-02-20T07:04:57.726Z,10.33
2019-02-20T07:05:58.072Z,10.25
2019-02-20T07:06:57.492Z,10.3
2019-02-20T07:07:58.047Z,10.33
2019-02-20T07:08:57.791Z,10.28
2019-02-20T07:09:57.810Z,10.28
2019-02-20T07:10:57.833Z,10.31
2019-02-20T07:11:57.582Z,10.31
2019-02-20T07:12:58.119Z,10.26
2019-02-20T07:13:57.627Z,10.26
2019-02-20T07:14:57.900Z,10.23
2019-02-20T07:15:57.657Z,10.25
2019-02-20T07:16:57.940Z,10.26
2019-02-20T07:17:57.952Z,10.3
2019-02-20T07:18:57.714Z,10.31
2019-02-20T07:19:57.734Z,10.31
2019-02-20T07:20:58.271Z,10.25
2019-02-20T07:21:57.769Z,10.28
2019-02-20T07:22:58.047Z,10.28
2019-02-20T07:23:58.073Z,10.26
2019-02-20T07:25:07.375Z,10.28
2019-02-20T07:25:58.384Z,10.31
2019-02-20T07:26:57.862Z,10.3
2019-02-20T07:27:58.399Z,10.28
2019-02-20T07:28:57.907Z,10.28
2019-02-20T07:29:58.458Z,10.26
2019-02-20T07:30:58.461Z,10.19
2019-02-20T07:31:57.960Z,10.33
2019-02-20T07:32:58.241Z,10.31
2019-02-20T07:33:58.268Z,10.15
2019-02-20T07:34:58.018Z,10.23
2019-02-20T07:35:58.566Z,10.3
2019-02-20T07:36:58.328Z,10.3
2019-02-20T07:37:58.343Z,10.28
2019-02-20T07:38:58.109Z,10.25
2019-02-20T07:39:59.952Z,10.3
2019-02-20T07:40:58.396Z,10.3
2019-02-20T07:41:58.409Z,10.28
2019-02-20T07:42:58.427Z,10.31
2019-02-20T07:43:58.705Z,10.34
2019-02-20T07:44:58.466Z,10.26
2019-02-20T07:45:58.747Z,10.31
2019-02-20T07:46:58.240Z,10.34
2019-02-20T07:47:58.518Z,10.28
2019-02-20T07:48:58.801Z,10.37
2019-02-20T07:49:58.317Z,10.34
2019-02-20T07:50:58.841Z,10.34
2019-02-20T07:51:58.364Z,10.41
2019-02-20T07:52:58.669Z,10.4
2019-02-20T07:53:58.907Z,10.37
2019-02-20T07:54:58.421Z,10.41
2019-02-20T07:55:58.413Z,10.33
2019-02-20T07:56:58.695Z,10.41
2019-02-20T07:57:58.712Z,10.42
2019-02-20T07:58:58.724Z,10.4
2019-02-20T07:59:59.002Z,10.34
2019-02-20T08:00:58.769Z,10.48
2019-02-20T08:01:58.782Z,10.41
2019-02-20T08:02:58.544Z,10.44
2019-02-20T08:03:58.828Z,10.37
2019-02-20T08:04:58.581Z,10.41
2019-02-20T08:05:58.858Z,10.37
2019-02-20T08:06:58.641Z,10.33
2019-02-20T08:07:58.640Z,10.41
2019-02-20T08:08:59.182Z,10.41
2019-02-20T08:09:58.675Z,10.48
2019-02-20T08:10:58.956Z,10.41
2019-02-20T08:11:58.977Z,10.44
2019-02-20T08:12:59.249Z,10.37
2019-02-20T08:13:59.014Z,10.44
2019-02-20T08:14:58.775Z,10.44
2019-02-20T08:15:59.063Z,10.41
2019-02-20T08:16:59.324Z,10.48
2019-02-20T08:17:59.374Z,10.44
2019-02-20T08:18:58.848Z,10.44
2019-02-20T08:19:58.866Z,10.42
2019-02-20T08:20:59.405Z,10.48
2019-02-20T08:21:59.161Z,10.46
2019-02-20T08:22:59.191Z,10.48
2019-02-20T08:23:58.950Z,10.46
2019-02-20T08:24:59.491Z,10.46
2019-02-20T08:25:59.694Z,10.51
2019-02-20T08:26:59.260Z,10.38
2019-02-20T08:27:59.277Z,10.41
2019-02-20T08:28:59.040Z,10.38
2019-02-20T08:29:59.580Z,10.49
2019-02-20T08:30:59.090Z,10.46
2019-02-20T08:31:59.613Z,10.54
2019-02-20T08:32:59.373Z,10.41
2019-02-20T08:33:59.401Z,10.54
2019-02-20T08:34:59.414Z,10.56
2019-02-20T08:35:59.430Z,10.51
2019-02-20T08:36:59.463Z,10.48
2019-02-20T08:37:59.475Z,10.54
2019-02-20T08:38:59.751Z,10.57
2019-02-20T08:39:59.542Z,10.48
2019-02-20T08:40:59.265Z,10.54
2019-02-20T08:41:59.819Z,10.54
2019-02-20T08:42:59.312Z,10.49
2019-02-20T08:43:59.597Z,10.59
2019-02-20T08:44:59.345Z,10.57
2019-02-20T08:45:59.378Z,10.6
2019-02-20T08:46:59.385Z,10.54
2019-02-20T08:47:59.513Z,10.64
2019-02-20T08:48:59.421Z,10.67
2019-02-20T08:49:59.701Z,10.59
2019-02-20T08:50:59.981Z,10.67
2019-02-20T08:51:59.789Z,10.61
2019-02-20T08:52:59.501Z,10.64
2019-02-20T08:53:59.780Z,10.64
2019-02-20T08:54:59.547Z,10.59
2019-02-20T08:55:59.825Z,10.69
2019-02-20T08:56:59.869Z,10.67
2019-02-20T08:57:59.596Z,10.63
2019-02-20T08:59:00.139Z,10.72
2019-02-20T08:59:59.660Z,10.64
2019-02-20T09:00:59.650Z,10.68
2019-02-20T09:01:59.929Z,10.78
2019-02-20T09:02:59.689Z,10.72
2019-02-20T09:03:59.983Z,10.76
2019-02-20T09:04:59.983Z,10.74
2019-02-20T09:05:59.749Z,10.81
2019-02-20T09:07:00.123Z,10.87
2019-02-20T09:07:59.785Z,10.76
2019-02-20T09:09:00.066Z,10.74
2019-02-20T09:09:59.828Z,10.76
2019-02-20T09:11:00.120Z,10.76
2019-02-20T09:11:59.863Z,10.81
2019-02-20T09:12:59.881Z,10.86
2019-02-20T09:14:00.165Z,10.76
2019-02-20T09:15:00.306Z,10.76
2019-02-20T09:15:59.937Z,10.81
2019-02-20T09:16:59.955Z,10.76
2019-02-20T09:17:59.983Z,10.84
2019-02-20T09:19:00.514Z,10.82
2019-02-20T09:20:00.540Z,10.81
2019-02-20T09:21:00.035Z,10.82
2019-02-20T09:22:00.316Z,10.87
2019-02-20T09:23:00.345Z,10.89
2019-02-20T09:24:00.349Z,10.89
2019-02-20T09:25:00.374Z,10.78
2019-02-20T09:26:00.396Z,10.96
2019-02-20T09:27:00.695Z,10.96
2019-02-20T09:28:00.697Z,10.94
2019-02-20T09:29:01.539Z,10.92
2019-02-20T09:30:00.732Z,11.04
2019-02-20T09:31:00.245Z,10.97
2019-02-20T09:32:00.252Z,11.07
2019-02-20T09:33:00.272Z,10.94
2019-02-20T09:34:01.323Z,11.05
2019-02-20T09:35:00.565Z,10.97
2019-02-20T09:36:00.326Z,10.97
2019-02-20T09:37:00.604Z,11.02
2019-02-20T09:38:00.370Z,10.96
2019-02-20T09:39:00.405Z,11.05
2019-02-20T09:40:00.678Z,11.11
2019-02-20T09:41:00.704Z,11.14
2019-02-20T09:42:00.442Z,11.12
2019-02-20T09:43:00.465Z,11.12
2019-02-20T09:44:00.995Z,11.14
2019-02-20T09:45:00.798Z,11.1
2019-02-20T09:46:00.520Z,11.17
2019-02-20T09:47:00.542Z,11.15
2019-02-20T09:48:00.825Z,11.15
2019-02-20T09:49:00.605Z,11.15
2019-02-20T09:50:00.595Z,11.17
2019-02-20T09:51:00.616Z,11.17
2019-02-20T09:52:01.162Z,11.11
2019-02-20T09:53:00.917Z,11.19
2019-02-20T09:54:00.936Z,11.19
2019-02-20T09:55:00.997Z,11.14
2019-02-20T09:56:00.989Z,11.26
2019-02-20T09:57:00.736Z,11.17
2019-02-20T09:58:01.016Z,11.22
2019-02-20T09:59:01.036Z,11.22
2019-02-20T10:00:00.792Z,11.19
2019-02-20T10:01:02.681Z,11.23
2019-02-20T10:02:01.103Z,11.22
2019-02-20T10:03:00.851Z,11.22
2019-02-20T10:04:01.918Z,11.29
2019-02-20T10:05:00.926Z,11.3
2019-02-20T10:06:01.172Z,11.33
2019-02-20T10:07:01.193Z,11.33
2019-02-20T10:08:01.209Z,11.33
2019-02-20T10:09:01.223Z,11.36
2019-02-20T10:10:00.986Z,11.37
2019-02-20T10:11:01.279Z,11.45
2019-02-20T10:12:01.292Z,11.35
2019-02-20T10:13:01.565Z,11.43
2019-02-20T10:14:01.585Z,11.37
2019-02-20T10:15:01.388Z,11.4
2019-02-20T10:16:01.638Z,11.37
2019-02-20T10:17:01.125Z,11.41
2019-02-20T10:18:01.426Z,11.41
2019-02-20T10:19:01.421Z,11.37
2019-02-20T10:20:01.452Z,11.43
2019-02-20T10:21:01.724Z,11.45
2019-02-20T10:22:01.484Z,11.43
2019-02-20T10:23:01.505Z,11.52
2019-02-20T10:24:01.532Z,11.47
2019-02-20T10:25:01.811Z,11.47
2019-02-20T10:26:05.721Z,11.51
2019-02-20T10:27:05.442Z,11.59
2019-02-20T10:28:01.355Z,11.47
2019-02-20T10:29:01.360Z,11.6
2019-02-20T10:30:01.387Z,11.51
2019-02-20T10:31:01.659Z,11.5
2019-02-20T10:32:01.708Z,11.57
2019-02-20T10:33:01.962Z,11.52
2019-02-20T10:34:01.728Z,11.54
2019-02-20T10:35:01.480Z,11.6
2019-02-20T10:36:01.771Z,11.65
2019-02-20T10:37:02.035Z,11.52
2019-02-20T10:38:01.541Z,11.63
2019-02-20T10:39:02.145Z,11.54
2019-02-20T10:40:01.604Z,11.6
2019-02-20T10:41:01.855Z,11.57
2019-02-20T10:42:01.622Z,11.57
2019-02-20T10:43:03.548Z,11.68
2019-02-20T10:44:01.662Z,11.65
2019-02-20T10:45:01.942Z,11.69
2019-02-20T10:46:01.954Z,11.72
2019-02-20T10:47:02.245Z,11.73
2019-02-20T10:48:02.006Z,11.7
2019-02-20T10:49:02.273Z,11.69
2019-02-20T10:50:01.774Z,11.66
2019-02-20T10:51:02.322Z,11.72
2019-02-20T10:52:02.081Z,11.69
2019-02-20T10:53:02.094Z,11.77
2019-02-20T10:54:02.122Z,11.73
2019-02-20T10:55:02.438Z,11.8
2019-02-20T10:56:09.071Z,11.72
2019-02-20T10:57:01.917Z,11.73
2019-02-20T10:58:01.937Z,11.73
2019-02-20T10:59:02.219Z,11.77
2019-02-20T11:00:02.236Z,11.77
2019-02-20T11:01:02.512Z,11.8
2019-02-20T11:02:02.281Z,11.83
2019-02-20T11:03:02.295Z,11.77
2019-02-20T11:04:02.312Z,11.78
2019-02-20T11:05:02.077Z,11.8
2019-02-20T11:06:02.093Z,11.83
2019-02-20T11:07:02.638Z,11.86
2019-02-20T11:08:02.134Z,11.8
2019-02-20T11:09:02.671Z,11.87
2019-02-20T11:10:02.432Z,11.84
2019-02-20T11:11:02.456Z,11.87
2019-02-20T11:12:02.212Z,11.88
2019-02-20T11:13:02.768Z,11.86
2019-02-20T11:14:02.511Z,11.9
2019-02-20T11:15:02.799Z,11.95
2019-02-20T11:16:03.525Z,11.87
2019-02-20T11:17:02.576Z,11.88
2019-02-20T11:18:02.594Z,11.91
2019-02-20T11:19:02.660Z,11.87
2019-02-20T11:20:02.675Z,11.91
2019-02-20T11:21:02.650Z,11.88
2019-02-20T11:22:02.421Z,11.91
2019-02-20T11:23:02.950Z,11.94
2019-02-20T11:24:03.675Z,11.94
2019-02-20T11:25:02.532Z,11.95
2019-02-20T11:26:02.750Z,11.9
2019-02-20T11:27:02.516Z,11.99
2019-02-20T11:28:03.051Z,12.04
2019-02-20T11:29:02.552Z,11.84
2019-02-20T11:30:02.591Z,12
2019-02-20T11:31:02.598Z,12.02
2019-02-20T11:32:02.876Z,11.91
2019-02-20T11:33:03.481Z,12
2019-02-20T11:34:04.318Z,11.99
2019-02-20T11:35:03.194Z,12
2019-02-20T11:36:02.697Z,11.95
2019-02-20T11:37:02.715Z,12.06
2019-02-20T11:38:03.253Z,12
2019-02-20T11:39:03.012Z,12.06
2019-02-20T11:40:02.779Z,12.06
2019-02-20T11:41:03.055Z,12.02
2019-02-20T11:42:03.339Z,12.1
2019-02-20T11:43:03.354Z,12.07
2019-02-20T11:44:03.398Z,12.03
2019-02-20T11:45:03.135Z,12.1
2019-02-20T11:46:03.157Z,12.03
2019-02-20T11:47:02.915Z,12.09
2019-02-20T11:48:02.936Z,12.1
2019-02-20T11:49:03.220Z,12.06
2019-02-20T11:50:03.246Z,12.13
2019-02-20T11:51:03.257Z,12.04
2019-02-20T11:52:03.021Z,12.07
2019-02-20T11:53:03.292Z,12.07
2019-02-20T11:54:03.319Z,12.12
2019-02-20T11:55:03.338Z,12.07
2019-02-20T11:56:03.100Z,12.04
2019-02-20T11:57:03.378Z,12.07
2019-02-20T11:58:05.901Z,12.22
2019-02-20T11:59:03.425Z,12.18
2019-02-20T12:00:03.693Z,12.21
2019-02-20T12:01:03.466Z,12.17
2019-02-20T12:02:03.736Z,12.21
2019-02-20T12:03:03.499Z,12.13
2019-02-20T12:04:03.518Z,12.25
2019-02-20T12:05:03.535Z,12.21
2019-02-20T12:06:03.555Z,12.29
2019-02-20T12:07:03.838Z,12.28
2019-02-20T12:08:03.600Z,12.18
2019-02-20T12:09:03.620Z,12.27
2019-02-20T12:10:03.636Z,12.28
2019-02-20T12:11:03.657Z,12.27
2019-02-20T12:12:03.678Z,12.25
2019-02-20T12:13:03.700Z,12.28
2019-02-20T12:14:03.974Z,12.35
2019-02-20T12:15:04.002Z,12.32
2019-02-20T12:16:03.761Z,12.36
2019-02-20T12:17:04.003Z,12.37
2019-02-20T12:18:03.542Z,12.37
2019-02-20T12:19:03.815Z,12.37
2019-02-20T12:20:03.590Z,12.35
2019-02-20T12:21:03.601Z,12.37
2019-02-20T12:22:03.620Z,12.37
2019-02-20T12:23:03.902Z,12.35
2019-02-20T12:24:03.920Z,12.4
2019-02-20T12:25:03.972Z,12.39
2019-02-20T12:26:04.220Z,12.39
2019-02-20T12:27:03.983Z,12.31
2019-02-20T12:28:04.261Z,12.39
2019-02-20T12:29:04.283Z,12.39
2019-02-20T12:30:04.316Z,12.45
2019-02-20T12:31:03.807Z,12.4
2019-02-20T12:32:03.822Z,12.39
2019-02-20T12:33:04.111Z,12.43
2019-02-20T12:34:05.908Z,12.42
2019-02-20T12:35:04.147Z,12.4
2019-02-20T12:36:04.193Z,12.47
2019-02-20T12:37:04.186Z,12.45
2019-02-20T12:38:05.024Z,12.47
2019-02-20T12:39:03.975Z,12.49
2019-02-20T12:40:05.102Z,12.5
2019-02-20T12:41:04.006Z,12.42
2019-02-20T12:42:04.295Z,12.45
2019-02-20T12:43:04.581Z,12.43
2019-02-20T12:44:04.329Z,12.5
2019-02-20T12:45:04.352Z,12.55
2019-02-20T12:46:04.376Z,12.54
2019-02-20T12:47:04.421Z,12.54
2019-02-20T12:48:04.413Z,12.55
2019-02-20T12:49:04.171Z,12.5
2019-02-20T12:50:04.450Z,12.6
2019-02-20T12:51:04.472Z,12.53
2019-02-20T12:52:04.775Z,12.57
2019-02-20T12:53:04.513Z,12.57
2019-02-20T12:54:04.275Z,12.57
2019-02-20T12:55:04.293Z,12.55
2019-02-20T12:56:12.160Z,12.53
2019-02-20T12:57:04.856Z,12.43